createdAt,value
2022-10-01T00:01:52.695Z,11.13
2022-10-01T00:04:20.460Z,11.12
2022-10-01T00:06:48.168Z,11.10
2022-10-01T00:09:15.968Z,11.01
2022-10-01T00:11:45.033Z,11.16
2022-10-01T00:14:12.711Z,11.01
2022-10-01T00:16:40.473Z,11.07
2022-10-01T00:19:08.251Z,10.93
2022-10-01T00:21:36.346Z,11.03
2022-10-01T00:24:07.067Z,11.14
2022-10-01T00:26:37.665Z,11.44
2022-10-01T00:29:09.073Z,11.18
2022-10-01T00:31:37.347Z,11.09
2022-10-01T00:34:06.434Z,11.25
2022-10-01T00:36:35.299Z,11.12
2022-10-01T00:39:03.058Z,11.34
2022-10-01T00:41:33.031Z,11.37
2022-10-01T00:44:02.518Z,11.20
2022-10-01T00:46:40.119Z,11.34
2022-10-01T00:49:12.325Z,11.11
2022-10-01T00:51:43.434Z,11.29
2022-10-01T00:54:14.742Z,11.28
2022-10-01T00:56:43.305Z,11.29
2022-10-01T00:59:11.937Z,11.10
2022-10-01T01:01:41.130Z,11.03
2022-10-01T01:04:16.484Z,11.08
2022-10-01T01:06:46.144Z,11.10
2022-10-01T01:09:14.150Z,11.05
2022-10-01T01:11:49.992Z,11.00
2022-10-01T01:14:23.966Z,11.25
2022-10-01T01:16:59.444Z,11.02
2022-10-01T01:19:44.176Z,10.97
2022-10-01T01:22:15.544Z,10.84
2022-10-01T01:24:50.141Z,10.84
2022-10-01T01:27:29.080Z,10.76
2022-10-01T01:30:03.673Z,10.88
2022-10-01T01:32:39.365Z,10.78
2022-10-01T01:35:11.219Z,11.01
2022-10-01T01:37:45.771Z,10.72
2022-10-01T01:40:16.838Z,10.84
2022-10-01T01:42:46.185Z,11.05
2022-10-01T01:45:21.048Z,10.84
2022-10-01T01:47:49.611Z,10.69
2022-10-01T01:50:18.773Z,10.97
2022-10-01T01:52:46.518Z,10.82
2022-10-01T01:55:14.237Z,10.93
2022-10-01T01:57:44.785Z,10.71
2022-10-01T02:00:14.329Z,10.86
2022-10-01T02:02:49.117Z,10.98
2022-10-01T02:05:20.647Z,10.70
2022-10-01T02:08:23.061Z,10.90
2022-10-01T02:11:05.523Z,10.61
2022-10-01T02:13:44.337Z,10.81
2022-10-01T02:16:21.090Z,11.20
2022-10-01T02:18:58.607Z,10.93
2022-10-01T02:21:31.579Z,10.48
2022-10-01T02:24:04.950Z,10.95
2022-10-01T02:26:35.069Z,10.81
2022-10-01T02:29:08.102Z,10.81
2022-10-01T02:31:37.019Z,10.87
2022-10-01T02:34:12.622Z,10.85
2022-10-01T02:36:42.545Z,11.09
2022-10-01T02:39:12.643Z,10.86
2022-10-01T02:41:41.444Z,10.96
2022-10-01T02:44:13.533Z,11.22
2022-10-01T02:46:45.977Z,11.18
2022-10-01T02:49:15.447Z,10.84
2022-10-01T02:51:54.659Z,10.69
2022-10-01T02:54:28.843Z,10.79
2022-10-01T02:57:15.416Z,10.67
2022-10-01T02:59:43.189Z,10.93
2022-10-01T03:02:11.320Z,10.99
2022-10-01T03:04:40.400Z,10.94
2022-10-01T03:07:08.417Z,11.01
2022-10-01T03:09:37.336Z,11.11
2022-10-01T03:12:06.559Z,11.19
2022-10-01T03:14:34.383Z,11.32
2022-10-01T03:17:02.032Z,11.29
2022-10-01T03:19:29.706Z,10.81
2022-10-01T03:21:58.819Z,11.03
2022-10-01T03:24:26.581Z,11.01
2022-10-01T03:26:55.084Z,11.06
2022-10-01T03:29:22.759Z,11.36
2022-10-01T03:31:50.537Z,11.31
2022-10-01T03:34:18.335Z,10.98
2022-10-01T03:36:47.017Z,11.17
2022-10-01T03:39:16.063Z,10.87
2022-10-01T03:41:44.067Z,11.14
2022-10-01T03:44:11.847Z,11.46
2022-10-01T03:46:39.543Z,10.94
2022-10-01T03:49:07.507Z,11.02
2022-10-01T03:51:36.276Z,11.00
2022-10-01T03:54:05.509Z,10.82
2022-10-01T03:56:35.229Z,10.80
2022-10-01T03:59:03.303Z,10.92
2022-10-01T04:01:31.473Z,10.98
2022-10-01T04:03:59.352Z,10.86
2022-10-01T04:06:27.102Z,10.83
2022-10-01T04:08:54.883Z,10.85
2022-10-01T04:11:22.727Z,10.77
2022-10-01T04:13:51.788Z,10.78
2022-10-01T04:16:19.493Z,10.84
2022-10-01T04:18:47.267Z,10.99
2022-10-01T04:21:15.509Z,11.09
2022-10-01T04:23:43.303Z,11.22
2022-10-01T04:26:11.112Z,11.09
2022-10-01T04:28:39.060Z,10.98
2022-10-01T04:31:26.541Z,10.83
2022-10-01T04:33:55.601Z,11.23
2022-10-01T04:36:24.617Z,11.25
2022-10-01T04:38:56.660Z,11.43
2022-10-01T04:41:27.281Z,11.54
2022-10-01T04:43:54.988Z,11.12
2022-10-01T04:46:24.111Z,11.25
2022-10-01T04:48:51.891Z,11.49
2022-10-01T04:51:19.552Z,11.11
2022-10-01T04:53:47.263Z,11.09
2022-10-01T04:56:14.971Z,11.70
2022-10-01T04:58:42.623Z,11.49
2022-10-01T05:01:10.385Z,11.32
2022-10-01T05:03:39.788Z,11.68
2022-10-01T05:06:07.461Z,11.13
2022-10-01T05:08:35.177Z,11.40
2022-10-01T05:11:03.140Z,11.33
2022-10-01T05:13:31.916Z,11.23
2022-10-01T05:15:59.834Z,11.35
2022-10-01T05:18:27.618Z,11.24
2022-10-01T05:20:56.695Z,11.21
2022-10-01T05:23:24.370Z,11.17
2022-10-01T05:25:52.131Z,11.45
2022-10-01T05:28:22.430Z,11.41
2022-10-01T05:30:50.958Z,11.24
2022-10-01T05:33:18.707Z,11.21
2022-10-01T05:35:46.419Z,11.69
2022-10-01T05:38:15.478Z,11.59
2022-10-01T05:40:46.378Z,11.23
2022-10-01T05:43:14.288Z,11.38
2022-10-01T05:45:42.591Z,11.58
2022-10-01T05:48:10.863Z,11.83
2022-10-01T05:50:40.957Z,11.51
2022-10-01T05:53:11.019Z,11.43
2022-10-01T05:55:40.080Z,11.85
2022-10-01T05:58:10.447Z,11.89
2022-10-01T06:00:39.896Z,11.71
2022-10-01T06:03:08.576Z,11.79
2022-10-01T06:05:37.877Z,11.78
2022-10-01T06:08:07.233Z,11.80
2022-10-01T06:10:36.767Z,11.76
2022-10-01T06:13:06.652Z,12.04
2022-10-01T06:15:37.411Z,11.96
2022-10-01T06:18:05.549Z,11.74
2022-10-01T06:20:33.249Z,12.05
2022-10-01T06:23:01.520Z,11.96
2022-10-01T06:25:30.794Z,11.69
2022-10-01T06:28:00.682Z,12.14
2022-10-01T06:30:32.447Z,11.91
2022-10-01T06:33:02.739Z,11.79
2022-10-01T06:35:30.495Z,12.47
2022-10-01T06:37:58.335Z,12.55
2022-10-01T06:40:26.395Z,12.50
2022-10-01T06:42:57.826Z,12.46
2022-10-01T06:45:25.980Z,12.88
2022-10-01T06:47:59.746Z,12.66
2022-10-01T06:50:27.464Z,12.70
2022-10-01T06:52:55.702Z,12.28
2022-10-01T06:55:26.651Z,12.31
2022-10-01T06:57:58.431Z,12.52
2022-10-01T07:00:27.061Z,13.02
2022-10-01T07:02:55.619Z,12.41
2022-10-01T07:05:25.742Z,12.64
2022-10-01T07:07:53.702Z,12.43
2022-10-01T07:10:23.194Z,12.88
2022-10-01T07:12:51.548Z,13.33
2022-10-01T07:15:21.148Z,12.79
2022-10-01T07:17:50.867Z,13.16
2022-10-01T07:20:20.490Z,13.19
2022-10-01T07:22:50.718Z,13.06
2022-10-01T07:25:18.467Z,12.70
2022-10-01T07:27:46.257Z,13.15
2022-10-01T07:30:14.029Z,12.85
2022-10-01T07:32:44.997Z,13.36
2022-10-01T07:35:12.721Z,13.23
2022-10-01T07:37:40.393Z,12.66
2022-10-01T07:40:10.483Z,13.04
2022-10-01T07:42:38.283Z,12.89
2022-10-01T07:45:07.524Z,12.91
2022-10-01T07:47:35.376Z,13.04
2022-10-01T07:50:03.145Z,12.78
2022-10-01T07:52:32.454Z,12.97
2022-10-01T07:55:00.199Z,13.06
2022-10-01T07:57:29.555Z,12.91
2022-10-01T07:59:57.209Z,12.89
2022-10-01T08:02:24.945Z,13.08
2022-10-01T08:05:10.595Z,12.83
2022-10-01T08:07:38.338Z,12.60
2022-10-01T08:10:12.141Z,12.73
2022-10-01T08:12:42.673Z,13.17
2022-10-01T08:15:12.437Z,13.22
2022-10-01T08:17:40.290Z,13.01
2022-10-01T08:20:10.705Z,13.08
2022-10-01T08:22:42.083Z,13.24
2022-10-01T08:25:10.820Z,13.16
2022-10-01T08:27:38.520Z,13.14
2022-10-01T08:30:09.196Z,13.23
2022-10-01T08:32:36.908Z,13.08
2022-10-01T08:35:05.427Z,13.21
2022-10-01T08:37:33.214Z,12.86
2022-10-01T08:40:01.003Z,13.36
2022-10-01T08:42:49.674Z,12.79
2022-10-01T08:45:24.345Z,12.92
2022-10-01T08:47:59.884Z,13.04
2022-10-01T08:50:39.911Z,12.67
2022-10-01T08:53:15.303Z,13.18
2022-10-01T08:55:43.671Z,12.82
2022-10-01T08:58:15.295Z,13.03
2022-10-01T09:00:46.207Z,12.96
2022-10-01T09:03:17.173Z,12.79
2022-10-01T09:05:58.456Z,12.64
2022-10-01T09:08:44.889Z,12.72
2022-10-01T09:11:23.871Z,12.82
2022-10-01T09:14:05.100Z,12.52
2022-10-01T09:16:42.161Z,13.02
2022-10-01T09:19:31.782Z,12.87
2022-10-01T09:22:03.240Z,12.57
2022-10-01T09:24:43.501Z,12.77
2022-10-01T09:27:14.850Z,12.70
2022-10-01T09:29:49.002Z,13.06
2022-10-01T09:32:22.639Z,12.87
2022-10-01T09:34:51.452Z,12.60
2022-10-01T09:37:33.640Z,12.26
2022-10-01T09:40:15.800Z,12.38
2022-10-01T09:42:44.380Z,12.26
2022-10-01T09:45:13.839Z,12.39
2022-10-01T09:47:44.882Z,12.06
2022-10-01T09:50:18.502Z,12.53
2022-10-01T09:52:51.141Z,12.59
2022-10-01T09:55:29.163Z,12.44
2022-10-01T09:58:01.069Z,12.44
2022-10-01T10:00:29.082Z,12.14
2022-10-01T10:02:58.301Z,11.89
2022-10-01T10:05:28.449Z,12.13
2022-10-01T10:07:59.520Z,12.31
2022-10-01T10:10:30.711Z,11.93
2022-10-01T10:13:01.946Z,12.24
2022-10-01T10:15:31.400Z,12.08
2022-10-01T10:18:08.061Z,11.85
2022-10-01T10:20:41.333Z,11.91
2022-10-01T10:23:10.649Z,11.86
2022-10-01T10:25:38.400Z,12.21
2022-10-01T10:28:06.920Z,12.30
2022-10-01T10:30:42.735Z,12.23
2022-10-01T10:33:15.427Z,12.05
2022-10-01T10:35:44.245Z,12.13
2022-10-01T10:38:18.926Z,11.83
2022-10-01T10:40:47.738Z,11.89
2022-10-01T10:43:22.715Z,12.11
2022-10-01T10:45:56.315Z,12.33
2022-10-01T10:48:31.678Z,12.37
2022-10-01T10:51:04.418Z,12.25
2022-10-01T10:53:43.987Z,12.47
2022-10-01T10:56:40.463Z,12.34
2022-10-01T10:59:09.350Z,12.54
2022-10-01T11:01:43.908Z,12.30
2022-10-01T11:04:25.913Z,12.45
2022-10-01T11:06:58.774Z,12.29
2022-10-01T11:09:30.267Z,12.62
2022-10-01T11:12:06.152Z,12.40
2022-10-01T11:14:49.984Z,12.35
2022-10-01T11:17:31.000Z,12.27
2022-10-01T11:20:20.455Z,12.43
2022-10-01T11:23:03.766Z,12.52
2022-10-01T11:25:43.964Z,11.99
2022-10-01T11:28:26.786Z,12.43
2022-10-01T11:31:04.678Z,12.41
2022-10-01T11:33:44.973Z,12.48
2022-10-01T11:36:24.887Z,12.87
2022-10-01T11:38:59.114Z,12.78
2022-10-01T11:41:32.533Z,13.34
2022-10-01T11:44:05.326Z,13.26
2022-10-01T11:46:41.135Z,12.79
2022-10-01T11:49:24.600Z,12.77
2022-10-01T11:52:04.177Z,12.56
2022-10-01T11:54:35.456Z,13.13
2022-10-01T11:57:23.319Z,12.94
2022-10-01T11:59:56.013Z,13.13
2022-10-01T12:02:28.370Z,13.27
2022-10-01T12:05:00.037Z,12.87
2022-10-01T12:07:38.322Z,12.71
2022-10-01T12:10:18.703Z,13.25
2022-10-01T12:12:50.895Z,13.18
2022-10-01T12:15:21.981Z,13.03
2022-10-01T12:17:54.396Z,13.15
2022-10-01T12:20:28.904Z,13.20
2022-10-01T12:23:00.820Z,13.00
2022-10-01T12:25:35.422Z,13.39
2022-10-01T12:28:10.621Z,13.49
2022-10-01T12:30:47.742Z,12.91
2022-10-01T12:33:45.784Z,13.07
2022-10-01T12:36:25.144Z,13.13
2022-10-01T12:39:11.705Z,13.17
2022-10-01T12:41:50.978Z,13.03
2022-10-01T12:44:38.036Z,13.28
2022-10-01T12:47:21.937Z,13.32
2022-10-01T12:49:57.453Z,13.39
2022-10-01T12:52:38.907Z,12.75
2022-10-01T12:55:26.553Z,13.53
2022-10-01T12:58:12.946Z,13.29
2022-10-01T13:00:50.460Z,13.71
2022-10-01T13:03:42.299Z,13.63
2022-10-01T13:06:24.475Z,13.46
2022-10-01T13:09:07.501Z,13.85
2022-10-01T13:11:50.316Z,13.62
2022-10-01T13:14:19.665Z,13.94
2022-10-01T13:16:57.081Z,14.50
2022-10-01T13:19:31.945Z,14.41
2022-10-01T13:22:10.043Z,14.47
2022-10-01T13:24:43.530Z,14.64
2022-10-01T13:27:19.441Z,14.47
2022-10-01T13:29:55.704Z,14.63
2022-10-01T13:32:33.194Z,14.65
2022-10-01T13:35:03.512Z,15.02
2022-10-01T13:37:37.616Z,15.24
2022-10-01T13:40:23.186Z,15.29
2022-10-01T13:42:54.688Z,15.54
2022-10-01T13:45:28.091Z,15.57
2022-10-01T13:48:07.515Z,16.05
2022-10-01T13:50:35.958Z,15.43
2022-10-01T13:53:10.202Z,15.41
2022-10-01T13:55:50.897Z,15.54
2022-10-01T13:58:41.481Z,15.45
2022-10-01T14:01:29.118Z,15.66
2022-10-01T14:04:05.077Z,16.14
2022-10-01T14:06:42.357Z,17.90
2022-10-01T14:09:16.176Z,17.72
2022-10-01T14:12:04.442Z,18.11
2022-10-01T14:14:54.522Z,18.23
2022-10-01T14:17:23.702Z,18.22
2022-10-01T14:19:51.913Z,17.81
2022-10-01T14:22:31.178Z,17.88
2022-10-01T14:25:16.452Z,18.04
2022-10-01T14:27:48.580Z,20.14
2022-10-01T14:30:21.962Z,19.91
2022-10-01T14:33:09.129Z,19.38
2022-10-01T14:35:40.814Z,20.25
2022-10-01T14:38:14.671Z,19.64
2022-10-01T14:40:44.482Z,19.04
2022-10-01T14:43:18.915Z,19.30
2022-10-01T14:45:54.906Z,19.50
2022-10-01T14:48:24.079Z,19.44
2022-10-01T14:50:54.474Z,20.07
2022-10-01T14:53:25.191Z,19.24
2022-10-01T14:55:56.025Z,20.24
2022-10-01T14:58:28.476Z,19.37
2022-10-01T15:00:58.930Z,19.50
2022-10-01T15:03:26.736Z,18.92
2022-10-01T15:06:04.689Z,19.88
2022-10-01T15:08:39.919Z,20.08
2022-10-01T15:11:13.133Z,19.40
2022-10-01T15:13:44.190Z,18.99
2022-10-01T15:16:16.717Z,19.03
2022-10-01T15:18:48.161Z,18.69
2022-10-01T15:21:21.001Z,18.98
2022-10-01T15:23:49.915Z,18.24
2022-10-01T15:26:22.423Z,17.88
2022-10-01T15:28:50.808Z,17.62
2022-10-01T15:31:22.941Z,17.21
2022-10-01T15:33:51.790Z,17.06
2022-10-01T15:36:20.055Z,17.11
2022-10-01T15:38:50.701Z,16.94
2022-10-01T15:41:32.653Z,17.16
2022-10-01T15:44:05.045Z,17.01
2022-10-01T15:46:35.617Z,17.17
2022-10-01T15:49:20.530Z,17.11
2022-10-01T15:52:16.093Z,16.78
2022-10-01T15:54:45.591Z,16.56
2022-10-01T15:57:18.726Z,16.39
2022-10-01T15:59:47.606Z,16.80
2022-10-01T16:02:21.781Z,16.58
2022-10-01T16:04:52.854Z,16.65
2022-10-01T16:07:22.599Z,16.40
2022-10-01T16:09:57.029Z,16.37
2022-10-01T16:12:28.531Z,16.50
2022-10-01T16:15:00.758Z,16.38
2022-10-01T16:17:32.589Z,16.44
2022-10-01T16:20:03.129Z,16.09
2022-10-01T16:22:32.833Z,16.57
2022-10-01T16:25:02.125Z,16.42
2022-10-01T16:27:32.957Z,16.00
2022-10-01T16:30:05.600Z,16.17
2022-10-01T16:32:35.219Z,15.90
2022-10-01T16:35:20.823Z,16.46
2022-10-01T16:37:50.186Z,16.28
2022-10-01T16:40:18.711Z,16.28
2022-10-01T16:42:48.087Z,16.36
2022-10-01T16:45:17.973Z,16.17
2022-10-01T16:47:47.438Z,16.25
2022-10-01T16:50:17.856Z,16.25
2022-10-01T16:52:46.143Z,16.54
2022-10-01T16:55:20.255Z,16.22
2022-10-01T16:57:48.055Z,16.33
2022-10-01T17:00:16.622Z,16.39
2022-10-01T17:02:45.117Z,16.13
2022-10-01T17:05:22.247Z,16.48
2022-10-01T17:07:50.415Z,15.93
2022-10-01T17:10:19.373Z,16.12
2022-10-01T17:12:48.043Z,15.86
2022-10-01T17:15:18.306Z,16.22
2022-10-01T17:17:46.639Z,15.99
2022-10-01T17:20:14.808Z,16.53
2022-10-01T17:22:51.032Z,16.36
2022-10-01T17:25:20.914Z,15.95
2022-10-01T17:27:49.145Z,15.86
2022-10-01T17:30:17.479Z,15.96
2022-10-01T17:32:46.596Z,15.69
2022-10-01T17:35:16.482Z,16.05
2022-10-01T17:37:45.565Z,16.18
2022-10-01T17:40:13.642Z,16.15
2022-10-01T17:42:41.321Z,16.17
2022-10-01T17:45:11.345Z,16.05
2022-10-01T17:47:44.141Z,16.15
2022-10-01T17:50:12.372Z,16.46
2022-10-01T17:52:40.071Z,16.55
2022-10-01T17:55:11.447Z,16.32
2022-10-01T17:57:39.203Z,16.18
2022-10-01T18:00:08.103Z,16.25
2022-10-01T18:02:43.554Z,16.15
2022-10-01T18:05:14.415Z,15.87
2022-10-01T18:07:42.827Z,16.22
2022-10-01T18:10:14.304Z,16.42
2022-10-01T18:12:42.362Z,16.28
2022-10-01T18:15:10.802Z,16.31
2022-10-01T18:17:43.417Z,16.25
2022-10-01T18:20:19.197Z,16.31
2022-10-01T18:22:46.979Z,16.13
2022-10-01T18:25:16.986Z,16.22
2022-10-01T18:27:46.561Z,16.32
2022-10-01T18:30:14.366Z,16.26
2022-10-01T18:32:45.896Z,16.17
2022-10-01T18:35:26.472Z,16.02
2022-10-01T18:37:57.607Z,16.16
2022-10-01T18:40:29.932Z,15.68
2022-10-01T18:43:26.818Z,15.89
2022-10-01T18:46:10.508Z,16.06
2022-10-01T18:49:10.082Z,15.75
2022-10-01T18:51:51.005Z,16.06
2022-10-01T18:54:39.450Z,16.03
2022-10-01T18:57:19.124Z,15.90
2022-10-01T18:59:59.761Z,15.80
2022-10-01T19:03:24.395Z,15.61
2022-10-01T19:06:14.602Z,15.78
2022-10-01T19:08:55.142Z,15.66
2022-10-01T19:11:29.865Z,15.22
2022-10-01T19:14:18.342Z,15.47
2022-10-01T19:16:53.803Z,15.44
2022-10-01T19:19:32.814Z,14.83
2022-10-01T19:22:02.735Z,15.19
2022-10-01T19:25:01.434Z,15.23
2022-10-01T19:27:49.116Z,15.29
2022-10-01T19:30:20.176Z,15.06
2022-10-01T19:32:54.809Z,15.13
2022-10-01T19:35:24.378Z,15.18
2022-10-01T19:37:56.008Z,14.94
2022-10-01T19:40:30.154Z,14.74
2022-10-01T19:43:06.657Z,14.96
2022-10-01T19:45:43.364Z,15.20
2022-10-01T19:48:19.296Z,15.17
2022-10-01T19:50:54.187Z,15.21
2022-10-01T19:53:27.329Z,14.88
2022-10-01T19:55:56.162Z,15.02
2022-10-01T19:58:24.146Z,15.15
2022-10-01T20:00:57.265Z,15.08
2022-10-01T20:03:35.475Z,15.01
2022-10-01T20:06:07.572Z,15.11
2022-10-01T20:08:39.588Z,14.98
2022-10-01T20:11:22.290Z,14.98
2022-10-01T20:14:33.848Z,15.08
2022-10-01T20:17:13.241Z,15.01
2022-10-01T20:19:47.897Z,14.97
2022-10-01T20:22:27.698Z,15.21
2022-10-01T20:25:03.913Z,14.87
2022-10-01T20:27:48.408Z,15.05
2022-10-01T20:30:20.564Z,14.92
2022-10-01T20:32:57.490Z,14.90
2022-10-01T20:35:32.362Z,14.97
2022-10-01T20:38:06.893Z,14.97
2022-10-01T20:40:40.342Z,15.21
2022-10-01T20:43:14.382Z,15.01
2022-10-01T20:45:42.879Z,15.01
2022-10-01T20:48:19.387Z,14.75
2022-10-01T20:50:50.571Z,14.86
2022-10-01T20:53:25.507Z,14.83
2022-10-01T20:56:01.663Z,15.00
2022-10-01T20:58:34.270Z,14.63
2022-10-01T21:01:12.930Z,14.80
2022-10-01T21:03:45.678Z,14.95
2022-10-01T21:06:17.663Z,14.89
2022-10-01T21:08:52.427Z,14.98
2022-10-01T21:11:29.965Z,14.91
2022-10-01T21:14:05.279Z,15.03
2022-10-01T21:17:02.091Z,14.86
2022-10-01T21:19:47.290Z,14.89
2022-10-01T21:22:29.250Z,14.78
2022-10-01T21:25:04.237Z,14.63
2022-10-01T21:27:54.759Z,14.77
2022-10-01T21:30:23.447Z,14.48
2022-10-01T21:33:07.283Z,14.72
2022-10-01T21:35:49.025Z,14.79
2022-10-01T21:38:28.588Z,14.63
2022-10-01T21:41:40.053Z,14.73
2022-10-01T21:44:23.612Z,14.62
2022-10-01T21:47:01.251Z,14.55
2022-10-01T21:49:42.866Z,14.80
2022-10-01T21:52:24.707Z,14.43
2022-10-01T21:55:17.131Z,14.67
2022-10-01T21:58:02.079Z,14.49
2022-10-01T22:00:40.289Z,14.34
2022-10-01T22:03:19.468Z,14.57
2022-10-01T22:05:56.115Z,14.63
2022-10-01T22:08:37.949Z,14.37
2022-10-01T22:11:14.864Z,14.53
2022-10-01T22:13:49.204Z,14.27
2022-10-01T22:16:18.163Z,14.12
2022-10-01T22:18:49.320Z,14.22
2022-10-01T22:21:23.931Z,14.23
2022-10-01T22:24:00.802Z,14.22
2022-10-01T22:26:32.846Z,14.25
2022-10-01T22:29:02.949Z,14.23
2022-10-01T22:31:35.747Z,14.24
2022-10-01T22:34:09.207Z,14.35
2022-10-01T22:36:43.264Z,14.33
2022-10-01T22:39:18.321Z,14.06
2022-10-01T22:41:48.372Z,14.06
2022-10-01T22:44:19.919Z,14.10
2022-10-01T22:47:04.104Z,13.87
2022-10-01T22:49:45.199Z,14.03
2022-10-01T22:52:26.846Z,14.07
2022-10-01T22:55:08.572Z,14.47
2022-10-01T22:57:54.179Z,14.40
2022-10-01T23:00:22.332Z,14.38
2022-10-01T23:03:02.056Z,14.36
2022-10-01T23:05:41.974Z,14.12
2022-10-01T23:08:20.476Z,14.28
2022-10-01T23:11:02.601Z,14.30
2022-10-01T23:13:40.415Z,14.28
2022-10-01T23:16:15.584Z,14.49
2022-10-01T23:18:54.684Z,14.20
2022-10-01T23:21:34.775Z,14.66
2022-10-01T23:24:17.937Z,14.46
2022-10-01T23:26:57.564Z,14.10
2022-10-01T23:29:49.376Z,14.28
2022-10-01T23:32:33.104Z,14.58
2022-10-01T23:35:09.084Z,14.16
2022-10-01T23:37:58.112Z,14.35
2022-10-01T23:40:39.182Z,14.28
2022-10-01T23:43:14.232Z,14.21
2022-10-01T23:45:47.052Z,13.98
2022-10-01T23:48:19.102Z,14.13
2022-10-01T23:50:58.887Z,14.10
2022-10-01T23:53:33.160Z,14.38
2022-10-01T23:56:22.376Z,14.27
2022-10-01T23:58:56.983Z,14.47
